»·PEaware :: N751LU KAPA-KTEX

N751LU :: KAPA-KTEX

FLIGHT INFORMATION

Flight Status: Arrived
Operator: Privately registered:
United States
More flights under this callsign
Pilot: Ewen S. (18928)
Aircraft: Cessna 700 Citation Longitude
(C700)
More flights by this aircraft type
Origin: KAPA Centennial
United States
Destination: KTEX Telluride Regl
United States
More flights between these airports :: More routes between these airports
Route: ROCKI5 MTJ ETL
File this flight plan on PilotEdge
Remarks:
Altitude:
(Current/Filed)
24,000ft
Speed:
(Current/Filed)
460kts
Departed: 22-Jul-23 12:49 PM
Arrived: 22-Jul-23 01:25 PM
Distance/Time
Traveled:
173nm/0:36
Distance/Time
To Go:
Arrived

Flight Plot

Page will automatically refresh every two minutes.

Flight plan parsing failed; only flown route is shown


Map Options




Map Legend


Flown Route
Filed Route
Departure Airport
Arrival Airport
Navaid (VOR, NDB)
Fix

Horizontal Profiles

Position Reports

Time Latitude Longitude Heading Altitude Ground
Speed
22-Jul-23 12:24 39.568228 -104.848008 93 5848ft 0kts
22-Jul-23 12:25 39.568228 -104.848008 93 5848ft 0kts
22-Jul-23 12:26 39.568228 -104.848008 93 5848ft 0kts
22-Jul-23 12:27 39.568228 -104.848008 93 5848ft 0kts
22-Jul-23 12:28 39.568228 -104.848008 93 5848ft 0kts
22-Jul-23 12:29 39.568228 -104.848008 93 5848ft 0kts
22-Jul-23 12:30 39.568228 -104.848008 93 5848ft 0kts
22-Jul-23 12:31 39.568228 -104.848008 93 5848ft 0kts
22-Jul-23 12:32 39.568228 -104.848008 93 5848ft 0kts
22-Jul-23 12:33 39.568228 -104.848008 93 5848ft 0kts
22-Jul-23 12:34 39.568228 -104.848008 93 5848ft 0kts
22-Jul-23 12:35 39.568228 -104.848008 93 5848ft 0kts
22-Jul-23 12:36 39.568228 -104.848008 93 5848ft 0kts
22-Jul-23 12:37 39.568228 -104.848008 93 5848ft 0kts
22-Jul-23 12:38 39.568228 -104.848008 93 5848ft 0kts
22-Jul-23 12:39 39.568228 -104.848008 93 5848ft 0kts
22-Jul-23 12:40 39.568228 -104.848008 93 5848ft 0kts
22-Jul-23 12:41 39.568228 -104.848008 93 5848ft 0kts
22-Jul-23 12:42 39.568228 -104.848008 93 5848ft 0kts
22-Jul-23 12:43 39.568228 -104.848008 93 5848ft 0kts
22-Jul-23 12:43 39.568228 -104.848008 93 5848ft 0kts
22-Jul-23 12:44 39.568228 -104.848008 93 5848ft 0kts
22-Jul-23 12:46 39.568148 -104.847982 215 5848ft 0kts
22-Jul-23 12:47 39.564755 -104.849149 177 5863ft 36kts
22-Jul-23 12:47 39.557975 -104.848847 182 5889ft 18kts
22-Jul-23 12:48 39.558224 -104.850339 358 5888ft 44kts
22-Jul-23 12:50 39.616597 -104.855411 359 7979ft 272kts
22-Jul-23 12:50 39.673620 -104.862144 327 7978ft 238kts
22-Jul-23 12:51 39.674067 -104.944670 255 8719ft 256kts
22-Jul-23 12:52 39.657062 -105.040833 258 11264ft 297kts
22-Jul-23 12:53 39.638383 -105.146050 259 15502ft 305kts
22-Jul-23 12:54 39.618696 -105.256490 260 19034ft 323kts
22-Jul-23 12:55 39.597724 -105.373303 260 22038ft 342kts
22-Jul-23 12:56 39.575214 -105.498329 260 23823ft 388kts
22-Jul-23 12:57 39.545330 -105.647615 252 23833ft 464kts
22-Jul-23 12:58 39.503599 -105.798159 253 23813ft 430kts
22-Jul-23 12:59 39.463516 -105.942073 253 23789ft 423kts
22-Jul-23 13:00 39.423490 -106.085017 253 23935ft 420kts
22-Jul-23 13:01 39.383528 -106.226973 253 24424ft 432kts
22-Jul-23 13:02 39.340872 -106.377392 253 24531ft 458kts
22-Jul-23 13:03 39.296162 -106.534204 253 24422ft 474kts
22-Jul-23 13:04 39.249739 -106.694706 250 24381ft 467kts
22-Jul-23 13:05 39.177816 -106.826531 234 24436ft 469kts
22-Jul-23 13:06 39.095351 -106.960066 234 24371ft 477kts
22-Jul-23 13:07 39.012539 -107.093806 234 24207ft 479kts
22-Jul-23 13:08 38.929587 -107.227247 234 24082ft 479kts
22-Jul-23 13:09 38.845812 -107.361416 234 24074ft 479kts
22-Jul-23 13:10 38.762316 -107.494600 234 24062ft 479kts
22-Jul-23 13:11 38.678902 -107.627082 233 24139ft 478kts
22-Jul-23 13:12 38.595188 -107.759532 233 24266ft 478kts
22-Jul-23 13:13 38.511530 -107.888307 225 23558ft 454kts
22-Jul-23 13:14 38.408882 -107.974976 212 21485ft 435kts
22-Jul-23 13:15 38.307754 -108.053057 212 19301ft 401kts
22-Jul-23 13:16 38.218357 -108.121953 212 17151ft 363kts
22-Jul-23 13:17 38.129334 -108.178686 190 15093ft 358kts
22-Jul-23 13:18 38.036692 -108.150359 141 13112ft 346kts
22-Jul-23 13:19 37.973115 -108.062535 129 11365ft 326kts
22-Jul-23 13:20 37.924989 -107.974419 114 10573ft 275kts
22-Jul-23 13:21 37.901147 -107.898838 104 10589ft 203kts
22-Jul-23 13:22 37.922666 -107.861434 8 10670ft 147kts
22-Jul-23 13:23 37.950479 -107.880828 262 9497ft 153kts
22-Jul-23 13:24 37.955335 -107.915550 314 9031ft 6kts
22-Jul-23 13:25 37.954408 -107.911543 104 9016ft 21kts
22-Jul-23 13:26 37.952426 -107.902069 101 9041ft 18kts
22-Jul-23 13:27 37.954011 -107.901917 316 9052ft 0kts
22-Jul-23 13:28 37.954011 -107.901917 316 9052ft 0kts
22-Jul-23 13:29 37.954011 -107.901917 316 9052ft 0kts

Navigation Log

Ident Type
Flight plan parsing failed, navigation log unavailable